Impacts METAR Board INFO
IDs:

KATL - Atlanta/Hartsfield-J, GA, US

Updated at: 0246 UTC 15 Dec 2017
Potential Impact None Slight Moderate High
Time14/14Z 14/15Z 14/16Z 14/17Z 14/18Z 14/19Z 14/20Z 14/21Z 14/22Z 14/23Z 15/00Z 15/01Z 15/02Z
VIS10 10 10 10 10 10 10 10 10 10 10 10 10
CIG-- -- -- -- 250 250 250 -- -- -- -- 250 250
CoverSCTFEWFEWFEWBKNBKNBKNSCTFEWSCTSCTBKNBKN
FltCatVFRVFRVFRVFRVFRVFRVFRVFRVFRVFRVFRVFRVFR
WX--------------------------
WDir270290290280220230250250240220230240250
WSpd7 8 5 5 6 9 9 6 5 5 7 6 3
WGst-- -- -- -- -- -- -- -- -- -- -- -- --
Raw hourly METARs
KATL 141352Z 27007KT 10SM SCT200 SCT250 06/M01 A2991 RMK AO2 SLP131 T00561006
KATL 141452Z 29008KT 10SM FEW250 08/M01 A2992 RMK AO2 SLP136 T00781006 51015
KATL 141552Z 29005KT 10SM FEW250 10/M01 A2994 RMK AO2 SLP140 T01001006
KATL 141652Z 28005KT 10SM FEW250 12/00 A2994 RMK AO2 SLP138 T01220000
KATL 141752Z 22006KT 10SM BKN250 13/01 A2992 RMK AO2 SLP135 T01280006 10128 20033 50001
KATL 141852Z 23009KT 10SM BKN250 14/01 A2991 RMK AO2 SLP131 T01390006
KATL 141952Z 25009KT 10SM BKN250 14/01 A2991 RMK AO2 SLP131 T01390006
KATL 142052Z 25006KT 10SM SCT250 13/01 A2993 RMK AO2 SLP137 T01330011 53001
KATL 142152Z 24005KT 10SM FEW250 12/02 A2993 RMK AO2 SLP139 T01220022
KATL 142252Z 22005KT 10SM FEW200 SCT250 11/02 A2993 RMK AO2 SLP139 T01060022
KATL 142352Z 23007KT 10SM FEW200 SCT250 09/03 A2996 RMK AO2 SLP148 T00940028 10144 20094 53009
KATL 150052Z 24006KT 10SM SCT180 BKN250 09/03 A2997 RMK AO2 SLP153 T00940028
KATL 150152Z 25003KT 10SM SCT170 BKN250 09/03 A2999 RMK AO2 SLP158 T00890028